Date,TemperatureHighF,TemperatureAvgF,TemperatureLowF,DewpointHighF,DewpointAvgF,DewpointLowF,HumidityHigh,HumidityAvg,HumidityLow,PressureMaxIn,PressureMinIn,WindSpeedMaxMPH,WindSpeedAvgMPH,GustSpeedMaxMPH,PrecipitationSumIn
2013-7-1,87,76,68,68,61,54,96,63,35,30.27,30.11,12,6,27,0.02
2013-7-2,87,76,65,65,56,47,95,55,26,30.31,30.10,13,4,30,0.00
2013-7-3,81,72,67,62,60,57,80,67,45,30.24,30.15,11,3,23,0.03
2013-7-4,95,88,77,60,53,45,54,32,18,30.06,29.89,9,4,14,0.11
2013-7-5,98,84,68,60,51,35,68,37,11,30.04,29.86,7,2,15,0.00
2013-7-6,99,85,74,61,55,44,58,38,16,30.01,29.86,8,2,14,0.01
2013-7-7,99,86,77,61,53,42,57,35,15,30.06,29.92,9,4,22,0.10
2013-7-8,98,85,75,59,52,42,57,35,15,30.17,30.04,9,3,17,0.00
2013-7-9,98,87,74,59,52,41,58,33,17,30.23,30.02,10,3,16,0.00
2013-7-10,96,85,75,63,53,-100,64,37,20,30.21,30.01,10,4,17,0.00
2013-7-11,96,84,74,64,57,45,69,42,18,30.15,30.01,13,3,23,0.00
2013-7-12,97,83,73,63,56,46,69,44,18,30.13,29.96,11,3,21,0.01
2013-7-13,97,85,72,63,54,41,69,39,15,30.14,29.98,8,2,14,0.01
2013-7-14,99,86,74,61,51,40,51,33,14,30.11,29.91,12,2,22,0.00
2013-7-15,84,76,69,65,59,50,69,56,41,30.19,30.02,12,5,20,0.03
2013-7-16,85,75,65,57,51,45,71,46,26,30.25,30.13,9,3,20,0.00
2013-7-17,84,75,67,60,55,49,72,52,30,30.32,30.23,16,5,28,0.00
2013-7-18,76,68,63,69,66,59,100,95,66,30.31,30.16,9,2,14,0.68
2013-7-19,83,74,67,71,65,59,100,76,45,30.23,30.04,10,3,16,0.68
2013-7-20,88,76,67,69,63,-100,100,68,35,30.13,29.96,14,3,31,0.00
2013-7-21,91,78,66,69,61,49,100,62,24,30.10,29.94,9,2,17,0.00
2013-7-22,94,79,67,71,64,56,100,68,29,30.11,29.96,8,3,17,0.00
2013-7-23,95,78,68,71,65,53,97,70,25,30.13,29.95,12,4,26,0.07
2013-7-24,90,78,68,72,66,58,100,72,35,30.22,30.03,12,2,22,0.10
2013-7-25,85,74,64,69,65,60,100,76,48,30.27,30.14,8,3,14,0.10
2013-7-26,93,78,71,74,68,55,100,77,33,30.29,30.16,15,2,25,0.10
2013-7-27,82,74,66,72,65,57,100,78,48,30.30,30.08,10,3,18,0.10
2013-7-28,88,75,66,71,65,58,100,75,38,30.13,29.98,7,2,11,0.20
2013-7-29,96,82,68,71,60,45,100,56,18,30.15,30.05,7,1,12,0.11
2013-7-30,97,82,69,64,57,42,83,46,18,30.26,30.15,17,2,24,0.00
2013-7-31,97,84,71,64,55,43,77,42,17,30.29,30.12,9,2,21,0.05